Time;durP1;ratioP1;P1;durP2;ratioP2;P2;SDS_P1;SDS_P2;PMS_P1;PMS_P2;Temp;Humidity;BMP_temperature;BMP_pressure;BME280_temperature;BME280_humidity;BME280_pressure;Samples;Min_cycle;Max_cycle;Signal;HPM_P1;HPM_P2
2021/08/21 00:02:01;;;;;;;6.27;4.07;;;;;;;;;;5126420;28;20236;-86
2021/08/21 00:04:29;;;;;;;4.53;3.83;;;;;;;;;;5115461;28;20221;-87
2021/08/21 00:06:57;;;;;;;4.13;3.73;;;;;;;;;;5107986;28;20226;-87
2021/08/21 00:09:24;;;;;;;4.50;3.70;;;;;;;;;;5110606;28;20194;-86
2021/08/21 00:11:53;;;;;;;9.40;4.00;;;;;;;;;;5114967;28;20221;-87
2021/08/21 00:14:22;;;;;;;4.90;4.07;;;;;;;;;;5114497;28;20202;-87
2021/08/21 00:16:50;;;;;;;4.73;3.63;;;;;;;;;;5115512;28;20221;-87
2021/08/21 00:19:18;;;;;;;4.83;4.17;;;;;;;;;;5114370;28;20294;-87
2021/08/21 00:21:47;;;;;;;4.07;3.67;;;;;;;;;;5114928;28;20671;-87
2021/08/21 00:24:16;;;;;;;5.30;3.77;;;;;;;;;;5109043;28;20821;-86
2021/08/21 00:26:43;;;;;;;5.40;4.00;;;;;;;;;;5093677;28;20215;-87
2021/08/21 00:29:12;;;;;;;4.77;3.90;;;;;;;;;;5099698;28;20233;-87
2021/08/21 00:31:50;;;;;;;4.50;4.10;;;;;;;;;;5086532;28;20202;-86
2021/08/21 00:34:17;;;;;;;6.20;4.00;;;;;;;;;;5099004;28;20191;-86
2021/08/21 00:36:45;;;;;;;3.90;3.50;;;;;;;;;;5093422;28;20226;-86
2021/08/21 00:39:13;;;;;;;4.13;3.73;;;;;;;;;;5094086;28;20652;-86
2021/08/21 00:41:41;;;;;;;4.97;3.83;;;;;;;;;;5089835;28;20191;-85
2021/08/21 00:44:08;;;;;;;4.80;3.70;;;;;;;;;;5096469;28;20202;-87
2021/08/21 00:46:36;;;;;;;4.17;3.77;;;;;;;;;;5113400;28;20206;-86
2021/08/21 00:49:05;;;;;;;5.03;3.90;;;;;;;;;;5113974;28;20190;-86
2021/08/21 00:51:32;;;;;;;4.67;3.97;;;;;;;;;;5113867;28;20202;-87
2021/08/21 00:54:00;;;;;;;4.93;3.67;;;;;;;;;;5112661;28;20202;-87
2021/08/21 00:56:27;;;;;;;4.50;3.80;;;;;;;;;;5113628;28;20650;-86
2021/08/21 00:58:55;;;;;;;4.30;3.80;;;;;;;;;;5113933;28;20202;-87
2021/08/21 01:01:23;;;;;;;5.93;3.70;;;;;;;;;;5113102;28;20236;-87
2021/08/21 01:03:51;;;;;;;5.50;3.53;;;;;;;;;;5097928;28;20244;-86
2021/08/21 01:06:21;;;;;;;5.20;3.57;;;;;;;;;;5091493;28;20225;-87
2021/08/21 01:08:48;;;;;;;4.77;3.40;;;;;;;;;;5079420;28;20219;-87
2021/08/21 01:11:16;;;;;;;7.33;4.00;;;;;;;;;;5079097;28;20242;-87
2021/08/21 01:13:44;;;;;;;4.40;3.70;;;;;;;;;;5093080;28;20240;-87
2021/08/21 01:16:11;;;;;;;4.83;3.67;;;;;;;;;;5099852;28;20592;-87
2021/08/21 01:18:47;;;;;;;6.63;3.63;;;;;;;;;;5099086;28;20205;-86
2021/08/21 01:21:14;;;;;;;4.20;3.80;;;;;;;;;;5098842;28;20200;-87
2021/08/21 01:23:43;;;;;;;4.60;3.80;;;;;;;;;;5099297;28;20271;-87
2021/08/21 01:26:11;;;;;;;4.00;3.60;;;;;;;;;;5083408;28;20231;-86
2021/08/21 01:28:40;;;;;;;5.83;4.00;;;;;;;;;;5078535;28;20231;-87
2021/08/21 01:31:07;;;;;;;5.10;4.23;;;;;;;;;;5078765;28;20443;-86
2021/08/21 01:33:35;;;;;;;5.77;3.77;;;;;;;;;;5078359;28;20227;-87
2021/08/21 01:36:03;;;;;;;4.93;3.80;;;;;;;;;;5098944;28;20253;-87
2021/08/21 01:38:31;;;;;;;6.13;3.80;;;;;;;;;;5087423;28;20241;-87
2021/08/21 01:40:58;;;;;;;4.60;3.60;;;;;;;;;;5079249;28;20290;-87
2021/08/21 01:43:30;;;;;;;3.60;3.30;;;;;;;;;;5078988;28;20662;-87
2021/08/21 01:46:00;;;;;;;5.67;4.23;;;;;;;;;;5098545;28;20285;-87
2021/08/21 01:48:27;;;;;;;4.23;3.23;;;;;;;;;;5098986;28;20191;-87
2021/08/21 01:50:58;;;;;;;4.77;3.80;;;;;;;;;;5099406;28;20619;-86
2021/08/21 01:56:08;;;;;;;6.77;3.80;;;;;;;;;;5097423;28;20245;-87
2021/08/21 01:58:35;;;;;;;5.47;3.70;;;;;;;;;;5097099;28;20222;-86
2021/08/21 02:01:05;;;;;;;4.77;3.73;;;;;;;;;;5097912;28;20670;-87
2021/08/21 02:03:32;;;;;;;4.43;3.50;;;;;;;;;;5098264;28;20625;-87
2021/08/21 02:06:00;;;;;;;4.70;3.70;;;;;;;;;;5099294;28;20194;-87
2021/08/21 02:08:28;;;;;;;5.73;4.07;;;;;;;;;;5097964;28;20277;-87
2021/08/21 02:10:56;;;;;;;6.60;4.10;;;;;;;;;;5099014;28;20195;-87
2021/08/21 02:13:24;;;;;;;7.13;3.80;;;;;;;;;;5098029;28;20365;-86
2021/08/21 02:15:51;;;;;;;4.37;3.73;;;;;;;;;;5097144;28;20254;-86
2021/08/21 02:18:20;;;;;;;5.30;4.07;;;;;;;;;;5098069;28;20197;-87
2021/08/21 02:20:47;;;;;;;6.20;4.10;;;;;;;;;;5090625;28;20219;-86
2021/08/21 02:23:14;;;;;;;7.30;4.30;;;;;;;;;;5076946;28;20222;-86
2021/08/21 02:25:42;;;;;;;6.63;4.33;;;;;;;;;;5074009;28;20270;-86
2021/08/21 02:28:10;;;;;;;5.97;4.17;;;;;;;;;;5075528;28;20283;-86
2021/08/21 02:30:38;;;;;;;5.00;3.97;;;;;;;;;;5076046;28;20525;-86
2021/08/21 02:33:05;;;;;;;7.73;4.10;;;;;;;;;;5083563;28;20233;-86
2021/08/21 02:35:34;;;;;;;7.23;4.60;;;;;;;;;;5094725;28;20692;-86
2021/08/21 02:38:02;;;;;;;5.23;4.17;;;;;;;;;;5075910;28;20202;-86
2021/08/21 02:40:29;;;;;;;5.27;4.13;;;;;;;;;;5075853;28;20199;-86
2021/08/21 02:42:56;;;;;;;5.67;4.17;;;;;;;;;;5075798;28;20281;-86
2021/08/21 02:45:24;;;;;;;8.50;5.30;;;;;;;;;;5077637;28;20209;-86
2021/08/21 02:47:51;;;;;;;5.63;4.57;;;;;;;;;;5096815;28;20278;-87
2021/08/21 02:50:18;;;;;;;5.40;4.67;;;;;;;;;;5096710;28;20206;-86
2021/08/21 02:52:47;;;;;;;7.97;5.07;;;;;;;;;;5085183;28;20243;-86
2021/08/21 02:55:14;;;;;;;8.90;4.80;;;;;;;;;;5076906;28;20254;-86
2021/08/21 02:57:42;;;;;;;7.07;4.63;;;;;;;;;;5077040;28;20219;-86
2021/08/21 03:00:10;;;;;;;7.00;4.50;;;;;;;;;;5078009;28;20290;-86
2021/08/21 03:02:37;;;;;;;7.77;5.03;;;;;;;;;;5089198;28;20218;-86
2021/08/21 03:05:05;;;;;;;8.00;4.73;;;;;;;;;;5098436;28;20225;-86
2021/08/21 03:07:33;;;;;;;9.03;4.70;;;;;;;;;;5079515;28;20199;-86
2021/08/21 03:10:02;;;;;;;7.00;5.07;;;;;;;;;;5095961;28;20202;-86
2021/08/21 03:12:29;;;;;;;10.00;4.40;;;;;;;;;;5080840;28;20714;-86
2021/08/21 03:14:56;;;;;;;9.67;5.20;;;;;;;;;;5077329;28;20194;-88
2021/08/21 03:17:24;;;;;;;6.27;4.90;;;;;;;;;;5078934;28;20237;-88
2021/08/21 03:19:52;;;;;;;8.13;5.33;;;;;;;;;;5096778;28;20274;-87
2021/08/21 03:22:19;;;;;;;7.67;5.00;;;;;;;;;;5097750;28;20198;-87
2021/08/21 03:24:48;;;;;;;5.80;4.53;;;;;;;;;;5097238;28;20242;-87
2021/08/21 03:27:18;;;;;;;8.43;5.30;;;;;;;;;;5091417;28;20202;-87
2021/08/21 03:29:45;;;;;;;9.33;5.30;;;;;;;;;;5095300;28;20233;-87
2021/08/21 03:32:16;;;;;;;5.77;5.17;;;;;;;;;;5097677;28;20198;-87
2021/08/21 03:34:44;;;;;;;8.60;5.30;;;;;;;;;;5095533;28;20694;-87
2021/08/21 03:37:12;;;;;;;5.77;4.70;;;;;;;;;;5097502;28;20253;-87
2021/08/21 03:39:40;;;;;;;9.97;5.20;;;;;;;;;;5081832;28;20686;-86
2021/08/21 03:42:07;;;;;;;6.70;4.83;;;;;;;;;;5076466;28;20555;-87
2021/08/21 03:44:37;;;;;;;6.83;4.83;;;;;;;;;;5076266;28;20199;-88
2021/08/21 03:47:05;;;;;;;7.73;4.93;;;;;;;;;;5082328;28;20225;-86
2021/08/21 03:49:32;;;;;;;8.33;5.00;;;;;;;;;;5096808;28;20194;-86
2021/08/21 03:52:00;;;;;;;7.67;5.07;;;;;;;;;;5096176;28;20320;-87
2021/08/21 03:54:28;;;;;;;9.23;5.43;;;;;;;;;;5093440;28;20198;-87
2021/08/21 03:56:56;;;;;;;8.43;5.57;;;;;;;;;;5077165;28;20273;-88
2021/08/21 03:59:24;;;;;;;6.17;5.10;;;;;;;;;;5076372;28;20686;-87
2021/08/21 04:01:53;;;;;;;10.80;5.57;;;;;;;;;;5077588;28;20215;-87
2021/08/21 04:04:28;;;;;;;10.33;5.67;;;;;;;;;;5095869;28;20783;-87
2021/08/21 04:06:55;;;;;;;11.70;5.77;;;;;;;;;;5086756;28;20244;-88
2021/08/21 04:09:23;;;;;;;6.13;4.97;;;;;;;;;;5097768;28;20198;-88
2021/08/21 04:11:50;;;;;;;7.03;4.83;;;;;;;;;;5097790;28;20226;-87
2021/08/21 04:14:17;;;;;;;8.63;5.17;;;;;;;;;;5095953;28;20301;-87
2021/08/21 04:16:45;;;;;;;6.43;5.37;;;;;;;;;;5077396;28;20269;-87
2021/08/21 04:19:22;;;;;;;5.53;4.67;;;;;;;;;;5076984;28;20230;-88
2021/08/21 04:21:51;;;;;;;6.83;5.07;;;;;;;;;;5085606;28;20228;-87
2021/08/21 04:24:18;;;;;;;10.07;5.30;;;;;;;;;;5097144;28;20224;-87
2021/08/21 04:26:46;;;;;;;8.90;5.77;;;;;;;;;;5079220;28;20219;-88
2021/08/21 04:29:14;;;;;;;8.80;5.63;;;;;;;;;;5094874;28;20198;-88
2021/08/21 04:31:41;;;;;;;7.37;6.00;;;;;;;;;;5097754;28;20281;-87
2021/08/21 04:34:10;;;;;;;8.80;5.57;;;;;;;;;;5096261;28;20241;-87
2021/08/21 04:36:38;;;;;;;8.20;6.07;;;;;;;;;;5097407;28;20313;-87
2021/08/21 04:39:07;;;;;;;8.30;5.83;;;;;;;;;;5093507;28;20294;-87
2021/08/21 04:41:34;;;;;;;10.10;6.43;;;;;;;;;;5096071;28;20610;-87
2021/08/21 04:44:01;;;;;;;8.77;5.80;;;;;;;;;;5101377;28;20187;-87
2021/08/21 04:46:35;;;;;;;7.07;5.87;;;;;;;;;;5100249;28;20629;-87
2021/08/21 04:49:02;;;;;;;9.17;6.00;;;;;;;;;;5100389;28;20216;-87
2021/08/21 04:51:29;;;;;;;7.13;5.40;;;;;;;;;;5094109;28;20308;-87
2021/08/21 04:53:59;;;;;;;7.40;5.73;;;;;;;;;;5078749;28;20199;-87
2021/08/21 04:56:26;;;;;;;8.73;6.13;;;;;;;;;;5079424;28;20250;-87
2021/08/21 04:58:55;;;;;;;8.10;5.93;;;;;;;;;;5097333;28;20591;-87
2021/08/21 05:01:22;;;;;;;7.97;5.70;;;;;;;;;;5099083;28;20198;-87
2021/08/21 05:03:50;;;;;;;7.20;5.73;;;;;;;;;;5100540;28;20218;-87
2021/08/21 05:06:18;;;;;;;8.00;5.73;;;;;;;;;;5099456;28;20191;-87
2021/08/21 05:08:45;;;;;;;7.73;5.70;;;;;;;;;;5079773;28;20661;-87
2021/08/21 05:11:15;;;;;;;7.57;6.10;;;;;;;;;;5077227;28;20222;-86
2021/08/21 05:13:42;;;;;;;8.20;5.70;;;;;;;;;;5076505;28;20234;-87
2021/08/21 05:16:10;;;;;;;6.60;5.83;;;;;;;;;;5077019;28;20238;-87
2021/08/21 05:18:40;;;;;;;6.40;5.57;;;;;;;;;;5076533;28;20694;-87
2021/08/21 05:21:13;;;;;;;6.83;5.97;;;;;;;;;;5080771;28;20199;-87
2021/08/21 05:23:40;;;;;;;7.97;6.07;;;;;;;;;;5091840;28;20190;-87
2021/08/21 05:26:11;;;;;;;7.40;5.97;;;;;;;;;;5097941;28;20198;-87
2021/08/21 05:28:40;;;;;;;9.60;5.97;;;;;;;;;;5091792;28;20539;-87
2021/08/21 05:31:08;;;;;;;9.00;5.87;;;;;;;;;;5099884;28;20202;-87
2021/08/21 05:33:35;;;;;;;7.93;6.37;;;;;;;;;;5090583;28;20249;-88
2021/08/21 05:36:03;;;;;;;8.17;5.80;;;;;;;;;;5081896;28;20226;-88
2021/08/21 05:38:30;;;;;;;10.03;6.40;;;;;;;;;;5083278;28;20255;-87
2021/08/21 05:40:57;;;;;;;8.07;6.27;;;;;;;;;;5079491;28;20286;-87
2021/08/21 05:43:25;;;;;;;7.77;5.73;;;;;;;;;;5079271;28;20226;-87
2021/08/21 05:45:54;;;;;;;6.53;5.47;;;;;;;;;;5078432;28;20309;-87
2021/08/21 05:48:21;;;;;;;8.50;6.37;;;;;;;;;;5078489;28;20195;-87
2021/08/21 05:50:49;;;;;;;7.93;6.23;;;;;;;;;;5078719;28;20226;-87
2021/08/21 05:53:16;;;;;;;8.07;5.97;;;;;;;;;;5078694;28;20229;-87
2021/08/21 05:55:44;;;;;;;7.13;6.20;;;;;;;;;;5079226;28;20259;-88
2021/08/21 05:58:14;;;;;;;8.13;5.90;;;;;;;;;;5078128;28;20255;-87
2021/08/21 06:00:41;;;;;;;6.53;5.83;;;;;;;;;;5092098;28;20198;-86
2021/08/21 06:03:15;;;;;;;7.60;5.97;;;;;;;;;;5079971;28;20651;-86
2021/08/21 06:05:50;;;;;;;7.30;6.00;;;;;;;;;;5077120;28;20241;-87
2021/08/21 06:08:17;;;;;;;7.90;5.63;;;;;;;;;;5078120;28;20194;-87
2021/08/21 06:10:47;;;;;;;7.30;5.47;;;;;;;;;;5078228;28;20253;-87
2021/08/21 06:13:17;;;;;;;7.80;5.83;;;;;;;;;;5077532;28;20737;-86
2021/08/21 06:15:45;;;;;;;6.47;5.73;;;;;;;;;;5088872;28;20261;-87
2021/08/21 06:18:15;;;;;;;7.03;5.70;;;;;;;;;;5097399;28;20313;-87
2021/08/21 06:20:42;;;;;;;7.33;5.73;;;;;;;;;;5096702;28;20279;-86
2021/08/21 06:23:09;;;;;;;7.00;5.90;;;;;;;;;;5097939;28;20233;-87
2021/08/21 06:25:38;;;;;;;6.87;5.93;;;;;;;;;;5097390;28;20273;-87
2021/08/21 06:28:05;;;;;;;7.70;6.27;;;;;;;;;;5097793;28;20573;-87
2021/08/21 06:30:33;;;;;;;7.80;6.00;;;;;;;;;;5087086;28;20226;-87
2021/08/21 06:33:01;;;;;;;9.17;6.10;;;;;;;;;;5077443;28;20603;-87
2021/08/21 06:35:30;;;;;;;8.03;6.30;;;;;;;;;;5077137;28;20199;-87
2021/08/21 06:37:57;;;;;;;7.90;6.40;;;;;;;;;;5077290;28;20294;-87
2021/08/21 06:40:25;;;;;;;7.00;6.30;;;;;;;;;;5077095;28;20241;-88
2021/08/21 06:42:52;;;;;;;7.60;6.10;;;;;;;;;;5078428;28;20364;-87
2021/08/21 06:45:20;;;;;;;8.30;6.40;;;;;;;;;;5077117;28;20234;-87
2021/08/21 06:47:48;;;;;;;7.00;6.30;;;;;;;;;;5077984;28;20217;-88
2021/08/21 06:50:16;;;;;;;7.60;6.20;;;;;;;;;;5077764;28;20249;-87
2021/08/21 06:55:26;;;;;;;7.80;5.93;;;;;;;;;;5077130;28;20235;-87
2021/08/21 06:57:53;;;;;;;6.70;5.97;;;;;;;;;;5077506;28;20226;-87
2021/08/21 07:00:21;;;;;;;7.20;5.40;;;;;;;;;;5083890;28;20721;-87
2021/08/21 07:02:48;;;;;;;7.23;5.80;;;;;;;;;;5084117;28;20623;-87
2021/08/21 07:05:16;;;;;;;7.43;5.83;;;;;;;;;;5077259;28;20223;-87
2021/08/21 07:07:44;;;;;;;7.15;5.80;;;;;;;;;;5074150;28;20722;-85
2021/08/21 07:10:12;;;;;;;6.67;5.47;;;;;;;;;;5073073;28;20223;-85
2021/08/21 07:12:39;;;;;;;6.60;5.90;;;;;;;;;;5085319;28;20222;-88
2021/08/21 07:15:07;;;;;;;6.93;5.80;;;;;;;;;;5098493;28;20238;-88
2021/08/21 07:17:35;;;;;;;6.63;5.67;;;;;;;;;;5098297;28;20249;-88
2021/08/21 07:20:02;;;;;;;7.53;5.38;;;;;;;;;;5098057;28;20202;-87
2021/08/21 07:22:30;;;;;;;6.18;5.55;;;;;;;;;;5098186;28;20198;-88
2021/08/21 07:25:00;;;;;;;8.38;5.80;;;;;;;;;;5098159;28;20218;-87
2021/08/21 07:27:27;;;;;;;7.07;5.60;;;;;;;;;;5097491;28;20198;-88
2021/08/21 07:51:12;;;;;;;7.28;6.30;;;;;;;;;;5020717;28;20195;-87
2021/08/21 07:53:40;;;;;;;6.93;6.22;;;;;;;;;;5080281;28;20254;-87
2021/08/21 07:56:08;;;;;;;6.65;5.88;;;;;;;;;;5079722;28;20231;-89
2021/08/21 07:58:36;;;;;;;6.55;5.85;;;;;;;;;;5079290;28;20280;-89
2021/08/21 08:01:21;;;;;;;7.25;6.47;;;;;;;;;;5075273;28;20234;-82
2021/08/21 08:03:49;;;;;;;7.18;6.38;;;;;;;;;;5081255;28;20617;-85
2021/08/21 08:06:18;;;;;;;7.00;6.22;;;;;;;;;;5081360;28;20226;-83
2021/08/21 08:08:45;;;;;;;6.72;6.03;;;;;;;;;;5078470;28;20282;-79
2021/08/21 08:11:13;;;;;;;7.38;6.18;;;;;;;;;;5074607;28;20286;-79
2021/08/21 08:13:40;;;;;;;8.40;6.40;;;;;;;;;;5069618;28;20667;-80
2021/08/21 08:16:07;;;;;;;7.30;6.15;;;;;;;;;;5069932;28;20191;-80
2021/08/21 08:18:34;;;;;;;6.50;5.90;;;;;;;;;;5073818;28;20214;-80
2021/08/21 08:21:03;;;;;;;9.35;6.32;;;;;;;;;;5091669;28;20233;-80
2021/08/21 08:23:32;;;;;;;9.65;6.38;;;;;;;;;;5079025;28;20322;-80
2021/08/21 08:26:02;;;;;;;7.13;5.80;;;;;;;;;;5075534;28;20199;-80
2021/08/21 08:28:29;;;;;;;7.25;6.47;;;;;;;;;;5078949;28;20674;-80
2021/08/21 08:31:11;;;;;;;6.65;6.05;;;;;;;;;;5078965;28;20631;-80
2021/08/21 08:33:39;;;;;;;7.38;6.57;;;;;;;;;;5075258;28;20230;-80
2021/08/21 08:36:06;;;;;;;7.40;6.15;;;;;;;;;;5075016;28;20670;-78
2021/08/21 08:38:52;;;;;;;7.70;6.90;;;;;;;;;;5080144;28;20223;-82
2021/08/21 08:41:23;;;;;;;7.05;6.18;;;;;;;;;;5056708;28;20290;-82
2021/08/21 08:44:00;;;;;;;7.78;6.82;;;;;;;;;;5074949;28;20203;-82
2021/08/21 08:46:27;;;;;;;6.63;6.03;;;;;;;;;;5084762;28;20198;-82
2021/08/21 08:48:55;;;;;;;7.03;6.30;;;;;;;;;;5082435;28;20283;-82
2021/08/21 08:51:22;;;;;;;6.40;5.80;;;;;;;;;;5078257;28;20222;-82
2021/08/21 08:53:50;;;;;;;6.72;6.03;;;;;;;;;;5074947;28;20235;-82
2021/08/21 08:56:18;;;;;;;7.93;5.95;;;;;;;;;;5082362;28;20345;-82
2021/08/21 08:58:48;;;;;;;6.75;5.85;;;;;;;;;;5082270;28;20254;-81
2021/08/21 09:01:15;;;;;;;8.27;6.03;;;;;;;;;;5074949;28;20242;-82
2021/08/21 09:03:42;;;;;;;6.43;5.78;;;;;;;;;;5076268;28;20233;-82
2021/08/21 09:06:12;;;;;;;6.70;5.88;;;;;;;;;;5075231;28;20282;-82
2021/08/21 09:08:40;;;;;;;6.88;6.18;;;;;;;;;;5073928;28;20199;-81
2021/08/21 09:11:21;;;;;;;8.00;5.82;;;;;;;;;;5074056;28;20199;-82
2021/08/21 09:13:48;;;;;;;7.65;6.32;;;;;;;;;;5082314;28;20197;-79
2021/08/21 09:16:25;;;;;;;7.15;6.40;;;;;;;;;;5088120;28;20233;-80
2021/08/21 09:19:03;;;;;;;9.15;7.60;;;;;;;;;;5082411;28;20297;-74
2021/08/21 09:21:30;;;;;;;10.18;7.72;;;;;;;;;;5081203;28;20229;-79
2021/08/21 09:23:57;;;;;;;10.65;8.40;;;;;;;;;;5074135;28;20203;-78
2021/08/21 09:26:30;;;;;;;10.23;8.77;;;;;;;;;;5077901;28;20290;-78
2021/08/21 09:28:58;;;;;;;13.85;8.93;;;;;;;;;;5073287;28;20202;-78
2021/08/21 09:31:28;;;;;;;9.73;8.07;;;;;;;;;;5079901;28;20685;-78
2021/08/21 09:33:56;;;;;;;11.13;8.20;;;;;;;;;;5092444;28;20372;-78
2021/08/21 09:36:29;;;;;;;10.13;9.00;;;;;;;;;;5083610;28;20265;-76
2021/08/21 09:38:57;;;;;;;10.43;8.17;;;;;;;;;;5074223;28;20333;-80
2021/08/21 09:41:26;;;;;;;9.87;8.17;;;;;;;;;;5074400;28;20195;-76
2021/08/21 09:44:04;;;;;;;11.63;10.07;;;;;;;;;;5071424;28;20522;-78
2021/08/21 09:46:31;;;;;;;10.13;8.87;;;;;;;;;;5084320;28;20229;-80
2021/08/21 09:48:59;;;;;;;10.07;8.47;;;;;;;;;;5080786;28;20613;-82
2021/08/21 09:51:44;;;;;;;11.67;8.60;;;;;;;;;;5090420;28;20214;-83
2021/08/21 09:54:13;;;;;;;11.90;8.50;;;;;;;;;;5078665;28;20617;-81
2021/08/21 09:56:43;;;;;;;9.60;8.40;;;;;;;;;;5090549;28;20336;-83
2021/08/21 09:59:11;;;;;;;11.90;8.63;;;;;;;;;;5087495;28;20253;-85
2021/08/21 10:01:38;;;;;;;9.40;8.03;;;;;;;;;;5089847;28;20737;-85
2021/08/21 10:04:06;;;;;;;8.33;7.43;;;;;;;;;;5094355;28;20205;-84
2021/08/21 10:06:33;;;;;;;7.60;5.97;;;;;;;;;;5089768;28;20222;-85
2021/08/21 10:09:05;;;;;;;9.57;6.93;;;;;;;;;;5094898;28;20529;-85
2021/08/21 10:11:32;;;;;;;11.97;7.83;;;;;;;;;;5087471;28;20196;-86
2021/08/21 10:14:02;;;;;;;9.87;8.07;;;;;;;;;;5085698;28;20191;-86
2021/08/21 10:16:30;;;;;;;9.87;8.20;;;;;;;;;;5084325;28;20249;-86
2021/08/21 10:18:58;;;;;;;10.13;8.10;;;;;;;;;;5080684;28;20222;-83
2021/08/21 10:21:26;;;;;;;10.83;8.03;;;;;;;;;;5092748;28;20251;-85
2021/08/21 10:23:54;;;;;;;9.47;7.57;;;;;;;;;;5083212;28;20203;-87
2021/08/21 10:26:27;;;;;;;8.53;7.30;;;;;;;;;;5092297;28;20191;-88
2021/08/21 10:28:57;;;;;;;10.27;7.97;;;;;;;;;;5079105;28;20199;-89
2021/08/21 10:31:43;;;;;;;11.23;7.77;;;;;;;;;;5081338;28;20203;-89
2021/08/21 10:34:14;;;;;;;10.00;7.10;;;;;;;;;;5097058;28;20615;-88
2021/08/21 10:36:48;;;;;;;10.53;8.63;;;;;;;;;;5089544;28;20199;-89
2021/08/21 10:42:30;;;;;;;9.87;8.20;;;;;;;;;;5067092;28;20198;-89
2021/08/21 10:47:44;;;;;;;8.67;7.17;;;;;;;;;;5088635;28;20651;-83
2021/08/21 10:50:35;;;;;;;8.13;6.97;;;;;;;;;;5081886;28;20237;-84
2021/08/21 10:53:09;;;;;;;8.33;6.13;;;;;;;;;;5078581;28;20206;-87
2021/08/21 10:55:41;;;;;;;8.47;6.53;;;;;;;;;;5085250;28;20222;-86
2021/08/21 10:58:22;;;;;;;7.87;6.13;;;;;;;;;;5081947;28;20297;-86
2021/08/21 11:01:01;;;;;;;8.50;6.07;;;;;;;;;;5083739;28;20199;-87
2021/08/21 11:03:48;;;;;;;7.83;5.80;;;;;;;;;;5096369;28;20259;-87
2021/08/21 11:06:19;;;;;;;6.37;5.07;;;;;;;;;;5084958;28;20205;-87
2021/08/21 11:08:59;;;;;;;7.30;5.67;;;;;;;;;;5090242;28;20545;-87
2021/08/21 11:11:30;;;;;;;6.97;4.70;;;;;;;;;;5095693;28;20604;-85
2021/08/21 11:14:01;;;;;;;7.57;4.67;;;;;;;;;;5098106;28;20281;-86
2021/08/21 11:17:00;;;;;;;5.57;4.57;;;;;;;;;;5082662;28;20214;-85
2021/08/21 11:19:38;;;;;;;5.03;4.23;;;;;;;;;;5073281;28;20298;-84
2021/08/21 11:22:18;;;;;;;5.63;4.50;;;;;;;;;;5085075;28;20206;-84
2021/08/21 11:24:59;;;;;;;5.30;4.13;;;;;;;;;;5075659;28;20241;-85
2021/08/21 11:27:31;;;;;;;7.33;4.87;;;;;;;;;;5072281;28;20202;-83
2021/08/21 11:30:30;;;;;;;5.70;4.57;;;;;;;;;;5096924;28;20194;-86
2021/08/21 11:33:04;;;;;;;5.50;4.75;;;;;;;;;;5075102;28;20199;-89
2021/08/21 11:35:43;;;;;;;5.40;4.43;;;;;;;;;;5078697;28;20206;-87
2021/08/21 11:38:14;;;;;;;5.78;4.38;;;;;;;;;;5078008;28;20203;-88
2021/08/21 11:40:46;;;;;;;6.40;4.32;;;;;;;;;;5093060;28;20191;-85
2021/08/21 11:45:58;;;;;;;5.53;4.18;;;;;;;;;;5072345;28;20278;-86
2021/08/21 11:48:29;;;;;;;4.72;4.18;;;;;;;;;;5080361;28;20219;-85
2021/08/21 11:51:01;;;;;;;4.75;3.20;;;;;;;;;;5078670;28;20203;-86
2021/08/21 11:53:35;;;;;;;6.60;3.70;;;;;;;;;;5087358;28;20199;-86
2021/08/21 11:56:02;;;;;;;4.60;3.60;;;;;;;;;;5083978;28;20674;-86
2021/08/21 11:58:30;;;;;;;4.97;3.25;;;;;;;;;;5089155;28;20253;-85
2021/08/21 12:01:04;;;;;;;5.35;3.42;;;;;;;;;;5066801;28;20222;-86
2021/08/21 12:03:36;;;;;;;4.68;3.53;;;;;;;;;;5078218;28;20222;-86
2021/08/21 12:06:07;;;;;;;4.97;3.97;;;;;;;;;;5092638;28;20198;-86
2021/08/21 12:08:53;;;;;;;5.60;4.05;;;;;;;;;;5095067;28;20705;-84
2021/08/21 12:11:21;;;;;;;4.40;4.00;;;;;;;;;;5071542;28;20206;-83
2021/08/21 12:13:49;;;;;;;5.30;4.30;;;;;;;;;;5084829;28;20202;-83
2021/08/21 12:16:17;;;;;;;4.97;3.30;;;;;;;;;;5080740;28;20198;-85
2021/08/21 12:18:46;;;;;;;4.40;3.85;;;;;;;;;;5076106;28;20476;-82
2021/08/21 12:21:18;;;;;;;4.88;3.75;;;;;;;;;;5079832;28;20226;-83
2021/08/21 12:23:46;;;;;;;4.25;3.85;;;;;;;;;;5071999;28;20199;-83
2021/08/21 12:26:13;;;;;;;5.55;4.00;;;;;;;;;;5075477;28;20229;-83
2021/08/21 12:28:43;;;;;;;4.25;3.85;;;;;;;;;;5070491;28;20195;-83
2021/08/21 12:31:13;;;;;;;5.38;4.38;;;;;;;;;;5079262;28;20203;-83
2021/08/21 12:33:41;;;;;;;5.25;4.05;;;;;;;;;;5077285;28;20694;-83
2021/08/21 12:36:13;;;;;;;5.18;3.50;;;;;;;;;;5084114;28;20225;-83
2021/08/21 12:38:40;;;;;;;4.95;3.92;;;;;;;;;;5072801;28;20231;-83
2021/08/21 12:41:08;;;;;;;4.43;4.00;;;;;;;;;;5070178;28;20272;-83
2021/08/21 12:43:37;;;;;;;6.18;4.30;;;;;;;;;;5070065;28;20246;-83
2021/08/21 12:46:17;;;;;;;5.43;4.63;;;;;;;;;;5087347;28;20229;-83
2021/08/21 12:48:44;;;;;;;6.25;4.45;;;;;;;;;;5069665;28;20195;-83
2021/08/21 12:51:11;;;;;;;4.45;3.92;;;;;;;;;;5073883;28;20203;-83
2021/08/21 12:53:38;;;;;;;4.35;3.95;;;;;;;;;;5074432;28;20226;-82
2021/08/21 12:56:10;;;;;;;6.43;3.78;;;;;;;;;;5081461;28;20233;-82
2021/08/21 12:58:37;;;;;;;4.43;3.83;;;;;;;;;;5075355;28;20232;-82
2021/08/21 13:01:10;;;;;;;5.28;4.30;;;;;;;;;;5082663;28;20194;-82
2021/08/21 13:03:37;;;;;;;8.02;6.60;;;;;;;;;;5087671;28;20259;-84
2021/08/21 13:06:06;;;;;;;6.45;4.75;;;;;;;;;;5091487;28;20288;-82
2021/08/21 13:08:37;;;;;;;4.45;3.90;;;;;;;;;;5086136;28;20222;-82
2021/08/21 13:11:05;;;;;;;4.25;3.85;;;;;;;;;;5091173;28;20202;-82
2021/08/21 13:13:32;;;;;;;4.45;3.90;;;;;;;;;;5083355;28;20245;-83
2021/08/21 13:16:04;;;;;;;4.68;3.90;;;;;;;;;;5088379;28;20248;-83
2021/08/21 13:18:32;;;;;;;4.20;3.80;;;;;;;;;;5075480;28;20299;-83
2021/08/21 13:20:59;;;;;;;5.13;3.97;;;;;;;;;;5076361;28;20598;-83
2021/08/21 13:23:27;;;;;;;4.80;3.70;;;;;;;;;;5092235;28;20676;-83
2021/08/21 13:25:54;;;;;;;5.03;4.25;;;;;;;;;;5086413;28;20286;-83
2021/08/21 13:28:22;;;;;;;4.28;3.88;;;;;;;;;;5094319;28;20226;-84
2021/08/21 13:30:49;;;;;;;5.90;4.20;;;;;;;;;;5093650;28;20195;-83
2021/08/21 13:33:17;;;;;;;4.60;4.20;;;;;;;;;;5083191;28;20253;-83
2021/08/21 13:35:45;;;;;;;4.40;4.00;;;;;;;;;;5084686;28;20210;-83
2021/08/21 13:38:13;;;;;;;4.60;3.85;;;;;;;;;;5081459;28;20199;-83
2021/08/21 13:40:40;;;;;;;4.88;4.20;;;;;;;;;;5075504;28;20273;-83
2021/08/21 13:43:07;;;;;;;4.47;4.07;;;;;;;;;;5092689;28;20251;-84
2021/08/21 13:45:35;;;;;;;4.88;4.00;;;;;;;;;;5083446;28;20194;-83
2021/08/21 13:48:03;;;;;;;5.40;4.05;;;;;;;;;;5075624;28;20203;-84
2021/08/21 13:50:31;;;;;;;6.22;4.30;;;;;;;;;;5086680;28;20662;-83
2021/08/21 13:52:59;;;;;;;4.90;4.18;;;;;;;;;;5076859;28;20227;-84
2021/08/21 13:55:27;;;;;;;4.80;4.38;;;;;;;;;;5091218;28;20272;-83
2021/08/21 13:57:54;;;;;;;5.22;4.50;;;;;;;;;;5076357;28;20211;-83
2021/08/21 14:00:22;;;;;;;5.00;4.40;;;;;;;;;;5084190;28;20223;-84
2021/08/21 14:02:49;;;;;;;5.72;4.72;;;;;;;;;;5086219;28;20214;-84
2021/08/21 14:05:16;;;;;;;5.70;4.65;;;;;;;;;;5079736;28;20245;-83
2021/08/21 14:07:44;;;;;;;5.78;4.57;;;;;;;;;;5088070;28;20202;-83
2021/08/21 14:10:14;;;;;;;6.00;4.68;;;;;;;;;;5080558;28;20194;-84
2021/08/21 14:12:41;;;;;;;6.22;5.32;;;;;;;;;;5078896;28;20191;-82
2021/08/21 14:15:09;;;;;;;6.60;5.93;;;;;;;;;;5091706;28;20231;-84
2021/08/21 14:17:36;;;;;;;7.40;6.65;;;;;;;;;;5087520;28;20256;-85
2021/08/21 14:20:04;;;;;;;6.93;6.22;;;;;;;;;;5086279;28;20226;-84
2021/08/21 14:22:32;;;;;;;7.57;6.88;;;;;;;;;;5081332;28;20195;-84
2021/08/21 14:24:59;;;;;;;7.32;6.63;;;;;;;;;;5093290;28;20568;-83
2021/08/21 14:27:28;;;;;;;6.72;6.13;;;;;;;;;;5090436;28;20674;-85
2021/08/21 14:29:55;;;;;;;6.97;6.28;;;;;;;;;;5085316;28;20256;-84
2021/08/21 14:32:22;;;;;;;7.50;6.80;;;;;;;;;;5087620;28;20248;-82
2021/08/21 14:34:50;;;;;;;8.65;6.90;;;;;;;;;;5074215;28;20284;-83
2021/08/21 14:37:17;;;;;;;7.25;6.53;;;;;;;;;;5090678;28;20615;-83
2021/08/21 14:39:45;;;;;;;7.47;6.78;;;;;;;;;;5079941;28;20258;-84
2021/08/21 14:42:12;;;;;;;9.30;7.10;;;;;;;;;;5073115;28;20199;-83
2021/08/21 14:44:40;;;;;;;8.10;6.72;;;;;;;;;;5073574;28;20252;-84
2021/08/21 14:47:08;;;;;;;8.63;6.28;;;;;;;;;;5085160;28;20631;-83
2021/08/21 14:49:35;;;;;;;7.68;6.97;;;;;;;;;;5091258;28;20191;-84
2021/08/21 14:52:03;;;;;;;24.05;15.98;;;;;;;;;;5093551;28;20671;-84
2021/08/21 14:54:31;;;;;;;7.35;6.45;;;;;;;;;;5093684;28;20206;-84
2021/08/21 14:56:58;;;;;;;8.35;7.28;;;;;;;;;;5093655;28;20237;-83
2021/08/21 14:59:25;;;;;;;7.70;6.68;;;;;;;;;;5088564;28;20202;-84
2021/08/21 15:01:54;;;;;;;8.88;6.63;;;;;;;;;;5077471;28;20666;-84
2021/08/21 15:04:22;;;;;;;7.97;6.20;;;;;;;;;;5072322;28;20746;-84
2021/08/21 15:06:49;;;;;;;6.82;5.60;;;;;;;;;;5087008;28;20256;-84
2021/08/21 15:09:16;;;;;;;6.85;6.15;;;;;;;;;;5075209;28;20199;-83
2021/08/21 15:11:43;;;;;;;8.40;5.70;;;;;;;;;;5084761;28;20191;-84
2021/08/21 15:14:11;;;;;;;6.00;5.05;;;;;;;;;;5080553;28;21093;-83
2021/08/21 15:16:42;;;;;;;8.80;5.78;;;;;;;;;;5082070;28;20195;-80
2021/08/21 15:19:12;;;;;;;7.93;5.35;;;;;;;;;;5085242;28;20194;-79
2021/08/21 15:21:40;;;;;;;6.18;4.40;;;;;;;;;;5076327;28;20561;-81
2021/08/21 15:24:08;;;;;;;6.25;4.57;;;;;;;;;;5090528;28;20198;-79
2021/08/21 15:26:35;;;;;;;5.07;4.22;;;;;;;;;;5076523;28;20285;-81
2021/08/21 15:29:02;;;;;;;5.35;4.55;;;;;;;;;;5077973;28;20290;-80
2021/08/21 15:31:31;;;;;;;5.45;3.75;;;;;;;;;;5084945;28;20223;-80